sensor_id;sensor_type;location;lat;lon;timestamp;P1;durP1;ratioP1;P2;durP2;ratioP2
17524;SDS011;40431;52.198;9.902;2023-01-29T00:01:41;14.73;;;13.53;;
17524;SDS011;40431;52.198;9.902;2023-01-29T00:04:07;13.87;;;12.77;;
17524;SDS011;40431;52.198;9.902;2023-01-29T00:06:35;15.30;;;14.10;;
17524;SDS011;40431;52.198;9.902;2023-01-29T00:09:01;15.67;;;14.10;;
17524;SDS011;40431;52.198;9.902;2023-01-29T00:11:28;14.77;;;13.60;;
17524;SDS011;40431;52.198;9.902;2023-01-29T00:13:55;15.17;;;13.77;;
17524;SDS011;40431;52.198;9.902;2023-01-29T00:16:23;14.47;;;13.37;;
17524;SDS011;40431;52.198;9.902;2023-01-29T00:18:49;15.40;;;14.10;;
17524;SDS011;40431;52.198;9.902;2023-01-29T00:21:17;14.67;;;13.27;;
17524;SDS011;40431;52.198;9.902;2023-01-29T00:23:47;15.93;;;14.60;;
17524;SDS011;40431;52.198;9.902;2023-01-29T00:26:14;16.33;;;14.73;;
17524;SDS011;40431;52.198;9.902;2023-01-29T00:28:41;16.00;;;14.33;;
17524;SDS011;40431;52.198;9.902;2023-01-29T00:31:08;15.43;;;14.03;;
17524;SDS011;40431;52.198;9.902;2023-01-29T00:33:36;15.70;;;14.20;;
17524;SDS011;40431;52.198;9.902;2023-01-29T00:36:02;15.33;;;14.13;;
17524;SDS011;40431;52.198;9.902;2023-01-29T00:38:29;15.27;;;13.97;;
17524;SDS011;40431;52.198;9.902;2023-01-29T00:40:58;16.80;;;15.40;;
17524;SDS011;40431;52.198;9.902;2023-01-29T00:43:48;17.60;;;16.00;;
17524;SDS011;40431;52.198;9.902;2023-01-29T00:46:32;15.73;;;14.43;;
17524;SDS011;40431;52.198;9.902;2023-01-29T00:48:58;23.23;;;16.10;;
17524;SDS011;40431;52.198;9.902;2023-01-29T00:51:25;17.50;;;15.80;;
17524;SDS011;40431;52.198;9.902;2023-01-29T00:53:52;17.73;;;16.23;;
17524;SDS011;40431;52.198;9.902;2023-01-29T00:56:28;17.00;;;15.30;;
17524;SDS011;40431;52.198;9.902;2023-01-29T00:58:55;17.77;;;16.17;;
17524;SDS011;40431;52.198;9.902;2023-01-29T01:01:22;17.43;;;15.93;;
17524;SDS011;40431;52.198;9.902;2023-01-29T01:04:02;17.03;;;15.63;;
17524;SDS011;40431;52.198;9.902;2023-01-29T01:06:29;16.70;;;15.20;;
17524;SDS011;40431;52.198;9.902;2023-01-29T01:08:56;17.53;;;16.07;;
17524;SDS011;40431;52.198;9.902;2023-01-29T01:11:41;18.40;;;16.70;;
17524;SDS011;40431;52.198;9.902;2023-01-29T01:14:07;16.37;;;14.87;;
17524;SDS011;40431;52.198;9.902;2023-01-29T01:16:34;18.13;;;16.63;;
17524;SDS011;40431;52.198;9.902;2023-01-29T01:19:01;18.20;;;16.50;;
17524;SDS011;40431;52.198;9.902;2023-01-29T01:21:28;19.30;;;17.63;;
17524;SDS011;40431;52.198;9.902;2023-01-29T01:23:54;19.53;;;17.73;;
17524;SDS011;40431;52.198;9.902;2023-01-29T01:26:21;19.90;;;18.17;;
17524;SDS011;40431;52.198;9.902;2023-01-29T01:28:48;18.30;;;16.70;;
17524;SDS011;40431;52.198;9.902;2023-01-29T01:31:15;18.00;;;16.60;;
17524;SDS011;40431;52.198;9.902;2023-01-29T01:33:41;18.50;;;16.93;;
17524;SDS011;40431;52.198;9.902;2023-01-29T01:36:07;19.20;;;17.53;;
17524;SDS011;40431;52.198;9.902;2023-01-29T01:38:35;19.03;;;17.40;;
17524;SDS011;40431;52.198;9.902;2023-01-29T01:41:08;21.00;;;19.00;;
17524;SDS011;40431;52.198;9.902;2023-01-29T01:43:50;19.10;;;17.40;;
17524;SDS011;40431;52.198;9.902;2023-01-29T01:46:18;18.40;;;16.80;;
17524;SDS011;40431;52.198;9.902;2023-01-29T01:48:45;18.10;;;16.60;;
17524;SDS011;40431;52.198;9.902;2023-01-29T01:51:14;19.60;;;17.90;;
17524;SDS011;40431;52.198;9.902;2023-01-29T01:53:42;18.00;;;16.50;;
17524;SDS011;40431;52.198;9.902;2023-01-29T01:56:16;18.70;;;16.93;;
17524;SDS011;40431;52.198;9.902;2023-01-29T01:58:47;18.93;;;17.43;;
17524;SDS011;40431;52.198;9.902;2023-01-29T02:01:18;18.60;;;16.90;;
17524;SDS011;40431;52.198;9.902;2023-01-29T02:03:52;18.20;;;16.60;;
17524;SDS011;40431;52.198;9.902;2023-01-29T02:06:40;18.23;;;16.53;;
17524;SDS011;40431;52.198;9.902;2023-01-29T02:09:24;17.73;;;16.20;;
17524;SDS011;40431;52.198;9.902;2023-01-29T02:11:59;17.73;;;16.13;;
17524;SDS011;40431;52.198;9.902;2023-01-29T02:14:27;20.53;;;18.63;;
17524;SDS011;40431;52.198;9.902;2023-01-29T02:16:55;18.87;;;17.07;;
17524;SDS011;40431;52.198;9.902;2023-01-29T02:19:23;19.70;;;17.73;;
17524;SDS011;40431;52.198;9.902;2023-01-29T02:25:08;18.67;;;16.97;;
17524;SDS011;40431;52.198;9.902;2023-01-29T02:30:46;18.43;;;16.70;;
17524;SDS011;40431;52.198;9.902;2023-01-29T02:33:20;20.20;;;18.33;;
17524;SDS011;40431;52.198;9.902;2023-01-29T02:35:56;20.40;;;18.47;;
17524;SDS011;40431;52.198;9.902;2023-01-29T02:38:29;18.37;;;16.67;;
17524;SDS011;40431;52.198;9.902;2023-01-29T02:41:02;19.93;;;18.23;;
17524;SDS011;40431;52.198;9.902;2023-01-29T02:43:36;20.80;;;18.70;;
17524;SDS011;40431;52.198;9.902;2023-01-29T02:46:13;18.80;;;17.10;;
17524;SDS011;40431;52.198;9.902;2023-01-29T02:48:45;19.23;;;17.47;;
17524;SDS011;40431;52.198;9.902;2023-01-29T02:51:20;19.37;;;17.57;;
17524;SDS011;40431;52.198;9.902;2023-01-29T02:53:52;19.53;;;17.77;;
17524;SDS011;40431;52.198;9.902;2023-01-29T02:56:27;20.00;;;18.10;;
17524;SDS011;40431;52.198;9.902;2023-01-29T02:59:03;19.00;;;17.30;;
17524;SDS011;40431;52.198;9.902;2023-01-29T03:01:34;22.23;;;19.97;;
17524;SDS011;40431;52.198;9.902;2023-01-29T03:04:07;19.47;;;17.50;;
17524;SDS011;40431;52.198;9.902;2023-01-29T03:06:40;20.17;;;18.13;;
17524;SDS011;40431;52.198;9.902;2023-01-29T03:09:11;20.03;;;18.23;;
17524;SDS011;40431;52.198;9.902;2023-01-29T03:11:43;20.70;;;18.90;;
17524;SDS011;40431;52.198;9.902;2023-01-29T03:14:16;20.30;;;18.43;;
17524;SDS011;40431;52.198;9.902;2023-01-29T03:16:48;21.67;;;19.63;;
17524;SDS011;40431;52.198;9.902;2023-01-29T03:19:17;21.90;;;19.80;;
17524;SDS011;40431;52.198;9.902;2023-01-29T03:21:49;20.80;;;18.73;;
17524;SDS011;40431;52.198;9.902;2023-01-29T03:24:25;19.83;;;18.03;;
17524;SDS011;40431;52.198;9.902;2023-01-29T03:27:15;20.97;;;19.07;;
17524;SDS011;40431;52.198;9.902;2023-01-29T03:30:06;21.40;;;19.57;;
17524;SDS011;40431;52.198;9.902;2023-01-29T03:32:52;20.47;;;18.47;;
17524;SDS011;40431;52.198;9.902;2023-01-29T03:35:22;21.23;;;19.03;;
17524;SDS011;40431;52.198;9.902;2023-01-29T03:37:59;20.97;;;19.07;;
17524;SDS011;40431;52.198;9.902;2023-01-29T03:40:26;21.03;;;18.83;;
17524;SDS011;40431;52.198;9.902;2023-01-29T03:42:58;21.03;;;19.13;;
17524;SDS011;40431;52.198;9.902;2023-01-29T03:45:36;21.10;;;19.23;;
17524;SDS011;40431;52.198;9.902;2023-01-29T03:48:10;20.50;;;18.43;;
17524;SDS011;40431;52.198;9.902;2023-01-29T03:50:45;20.37;;;18.37;;
17524;SDS011;40431;52.198;9.902;2023-01-29T03:53:20;21.10;;;19.10;;
17524;SDS011;40431;52.198;9.902;2023-01-29T03:55:53;20.47;;;18.30;;
17524;SDS011;40431;52.198;9.902;2023-01-29T03:58:24;20.87;;;18.70;;
17524;SDS011;40431;52.198;9.902;2023-01-29T04:01:01;20.03;;;18.13;;
17524;SDS011;40431;52.198;9.902;2023-01-29T04:03:35;19.50;;;17.80;;
17524;SDS011;40431;52.198;9.902;2023-01-29T04:06:06;21.23;;;19.33;;
17524;SDS011;40431;52.198;9.902;2023-01-29T04:08:39;20.27;;;18.47;;
17524;SDS011;40431;52.198;9.902;2023-01-29T04:11:14;20.23;;;18.33;;
17524;SDS011;40431;52.198;9.902;2023-01-29T04:13:44;19.53;;;17.63;;
17524;SDS011;40431;52.198;9.902;2023-01-29T04:16:13;20.90;;;18.80;;
17524;SDS011;40431;52.198;9.902;2023-01-29T04:18:44;23.13;;;18.70;;
17524;SDS011;40431;52.198;9.902;2023-01-29T04:21:11;23.47;;;20.50;;
17524;SDS011;40431;52.198;9.902;2023-01-29T04:23:38;20.73;;;18.90;;
17524;SDS011;40431;52.198;9.902;2023-01-29T04:26:10;21.07;;;18.97;;
17524;SDS011;40431;52.198;9.902;2023-01-29T04:28:52;21.33;;;19.23;;
17524;SDS011;40431;52.198;9.902;2023-01-29T04:31:27;20.70;;;18.60;;
17524;SDS011;40431;52.198;9.902;2023-01-29T04:34:01;20.40;;;18.43;;
17524;SDS011;40431;52.198;9.902;2023-01-29T04:36:40;20.50;;;18.50;;
17524;SDS011;40431;52.198;9.902;2023-01-29T04:39:17;21.53;;;19.53;;
17524;SDS011;40431;52.198;9.902;2023-01-29T04:41:49;23.70;;;19.60;;
17524;SDS011;40431;52.198;9.902;2023-01-29T04:44:20;21.20;;;18.83;;
17524;SDS011;40431;52.198;9.902;2023-01-29T04:46:55;20.97;;;18.80;;
17524;SDS011;40431;52.198;9.902;2023-01-29T04:49:31;21.80;;;19.70;;
17524;SDS011;40431;52.198;9.902;2023-01-29T04:52:07;20.30;;;18.40;;
17524;SDS011;40431;52.198;9.902;2023-01-29T04:54:42;21.90;;;19.47;;
17524;SDS011;40431;52.198;9.902;2023-01-29T04:57:19;20.53;;;18.53;;
17524;SDS011;40431;52.198;9.902;2023-01-29T04:59:53;21.03;;;18.90;;
17524;SDS011;40431;52.198;9.902;2023-01-29T05:02:26;19.80;;;18.00;;
17524;SDS011;40431;52.198;9.902;2023-01-29T05:04:53;20.83;;;19.00;;
17524;SDS011;40431;52.198;9.902;2023-01-29T05:07:21;19.27;;;17.57;;
17524;SDS011;40431;52.198;9.902;2023-01-29T05:09:48;20.33;;;18.30;;
17524;SDS011;40431;52.198;9.902;2023-01-29T05:12:16;21.23;;;19.27;;
17524;SDS011;40431;52.198;9.902;2023-01-29T05:14:43;22.77;;;19.67;;
17524;SDS011;40431;52.198;9.902;2023-01-29T05:17:13;20.50;;;18.07;;
17524;SDS011;40431;52.198;9.902;2023-01-29T05:19:42;20.37;;;18.43;;
17524;SDS011;40431;52.198;9.902;2023-01-29T05:22:10;19.67;;;17.77;;
17524;SDS011;40431;52.198;9.902;2023-01-29T05:24:38;20.23;;;18.40;;
17524;SDS011;40431;52.198;9.902;2023-01-29T05:27:05;21.03;;;19.13;;
17524;SDS011;40431;52.198;9.902;2023-01-29T05:29:50;22.47;;;20.13;;
17524;SDS011;40431;52.198;9.902;2023-01-29T05:32:16;20.43;;;18.43;;
17524;SDS011;40431;52.198;9.902;2023-01-29T05:34:44;21.87;;;19.20;;
17524;SDS011;40431;52.198;9.902;2023-01-29T05:37:10;21.73;;;19.63;;
17524;SDS011;40431;52.198;9.902;2023-01-29T05:39:37;20.37;;;18.30;;
17524;SDS011;40431;52.198;9.902;2023-01-29T05:42:03;23.73;;;19.37;;
17524;SDS011;40431;52.198;9.902;2023-01-29T05:44:29;21.70;;;19.43;;
17524;SDS011;40431;52.198;9.902;2023-01-29T05:46:56;22.83;;;20.37;;
17524;SDS011;40431;52.198;9.902;2023-01-29T05:49:22;20.70;;;18.73;;
17524;SDS011;40431;52.198;9.902;2023-01-29T05:51:50;21.50;;;19.43;;
17524;SDS011;40431;52.198;9.902;2023-01-29T05:54:16;21.00;;;18.90;;
17524;SDS011;40431;52.198;9.902;2023-01-29T05:56:43;22.10;;;19.80;;
17524;SDS011;40431;52.198;9.902;2023-01-29T05:59:09;21.30;;;19.10;;
17524;SDS011;40431;52.198;9.902;2023-01-29T06:01:35;21.50;;;19.40;;
17524;SDS011;40431;52.198;9.902;2023-01-29T06:04:02;22.83;;;20.00;;
17524;SDS011;40431;52.198;9.902;2023-01-29T06:06:28;22.10;;;19.73;;
17524;SDS011;40431;52.198;9.902;2023-01-29T06:08:56;21.70;;;19.43;;
17524;SDS011;40431;52.198;9.902;2023-01-29T06:11:22;22.33;;;19.50;;
17524;SDS011;40431;52.198;9.902;2023-01-29T06:13:49;25.17;;;20.43;;
17524;SDS011;40431;52.198;9.902;2023-01-29T06:16:15;24.80;;;21.13;;
17524;SDS011;40431;52.198;9.902;2023-01-29T06:18:42;24.20;;;21.37;;
17524;SDS011;40431;52.198;9.902;2023-01-29T06:21:09;26.07;;;20.17;;
17524;SDS011;40431;52.198;9.902;2023-01-29T06:23:36;22.63;;;20.23;;
17524;SDS011;40431;52.198;9.902;2023-01-29T06:26:05;21.63;;;19.43;;
17524;SDS011;40431;52.198;9.902;2023-01-29T06:28:34;24.57;;;21.50;;
17524;SDS011;40431;52.198;9.902;2023-01-29T06:31:00;22.67;;;19.40;;
17524;SDS011;40431;52.198;9.902;2023-01-29T06:33:28;23.13;;;19.97;;
17524;SDS011;40431;52.198;9.902;2023-01-29T06:35:55;23.83;;;21.53;;
17524;SDS011;40431;52.198;9.902;2023-01-29T06:38:22;22.97;;;20.57;;
17524;SDS011;40431;52.198;9.902;2023-01-29T06:40:49;22.90;;;20.53;;
17524;SDS011;40431;52.198;9.902;2023-01-29T06:43:17;23.30;;;20.90;;
17524;SDS011;40431;52.198;9.902;2023-01-29T06:45:47;27.10;;;20.20;;
17524;SDS011;40431;52.198;9.902;2023-01-29T06:48:14;22.80;;;20.30;;
17524;SDS011;40431;52.198;9.902;2023-01-29T06:50:41;27.37;;;20.23;;
17524;SDS011;40431;52.198;9.902;2023-01-29T06:53:07;25.13;;;21.73;;
17524;SDS011;40431;52.198;9.902;2023-01-29T06:55:34;20.77;;;18.63;;
17524;SDS011;40431;52.198;9.902;2023-01-29T06:58:03;27.87;;;22.90;;
17524;SDS011;40431;52.198;9.902;2023-01-29T07:00:31;22.63;;;20.13;;
17524;SDS011;40431;52.198;9.902;2023-01-29T07:02:58;23.63;;;21.07;;
17524;SDS011;40431;52.198;9.902;2023-01-29T07:05:24;26.73;;;20.13;;
17524;SDS011;40431;52.198;9.902;2023-01-29T07:07:51;25.80;;;20.97;;
17524;SDS011;40431;52.198;9.902;2023-01-29T07:10:18;23.67;;;21.17;;
17524;SDS011;40431;52.198;9.902;2023-01-29T07:12:44;27.07;;;21.97;;
17524;SDS011;40431;52.198;9.902;2023-01-29T07:15:11;25.07;;;21.77;;
17524;SDS011;40431;52.198;9.902;2023-01-29T07:17:39;28.20;;;20.77;;
17524;SDS011;40431;52.198;9.902;2023-01-29T07:20:06;26.67;;;21.73;;
17524;SDS011;40431;52.198;9.902;2023-01-29T07:22:33;25.37;;;20.40;;
17524;SDS011;40431;52.198;9.902;2023-01-29T07:25:00;22.97;;;20.53;;
17524;SDS011;40431;52.198;9.902;2023-01-29T07:27:26;21.90;;;19.67;;
17524;SDS011;40431;52.198;9.902;2023-01-29T07:29:52;25.43;;;21.60;;
17524;SDS011;40431;52.198;9.902;2023-01-29T07:32:19;23.83;;;21.23;;
17524;SDS011;40431;52.198;9.902;2023-01-29T07:34:46;26.00;;;21.83;;
17524;SDS011;40431;52.198;9.902;2023-01-29T07:37:13;23.77;;;21.30;;
17524;SDS011;40431;52.198;9.902;2023-01-29T07:39:39;29.33;;;23.50;;
17524;SDS011;40431;52.198;9.902;2023-01-29T07:42:06;26.87;;;22.70;;
17524;SDS011;40431;52.198;9.902;2023-01-29T07:44:32;26.50;;;21.80;;
17524;SDS011;40431;52.198;9.902;2023-01-29T07:46:58;24.20;;;21.60;;
17524;SDS011;40431;52.198;9.902;2023-01-29T07:49:25;27.60;;;23.67;;
17524;SDS011;40431;52.198;9.902;2023-01-29T07:51:52;28.13;;;22.77;;
17524;SDS011;40431;52.198;9.902;2023-01-29T07:54:19;25.13;;;21.23;;
17524;SDS011;40431;52.198;9.902;2023-01-29T07:56:45;29.53;;;22.77;;
17524;SDS011;40431;52.198;9.902;2023-01-29T07:59:12;27.73;;;22.63;;
17524;SDS011;40431;52.198;9.902;2023-01-29T08:01:38;26.23;;;21.87;;
17524;SDS011;40431;52.198;9.902;2023-01-29T08:04:04;27.33;;;22.27;;
17524;SDS011;40431;52.198;9.902;2023-01-29T08:06:31;29.40;;;23.77;;
17524;SDS011;40431;52.198;9.902;2023-01-29T08:08:59;31.77;;;24.57;;
17524;SDS011;40431;52.198;9.902;2023-01-29T08:11:26;28.67;;;24.17;;
17524;SDS011;40431;52.198;9.902;2023-01-29T08:13:52;26.87;;;22.50;;
17524;SDS011;40431;52.198;9.902;2023-01-29T08:16:20;28.57;;;22.17;;
17524;SDS011;40431;52.198;9.902;2023-01-29T08:18:47;27.77;;;23.47;;
17524;SDS011;40431;52.198;9.902;2023-01-29T08:21:13;29.80;;;22.47;;
17524;SDS011;40431;52.198;9.902;2023-01-29T08:23:40;27.47;;;22.60;;
17524;SDS011;40431;52.198;9.902;2023-01-29T08:26:08;29.40;;;21.47;;
17524;SDS011;40431;52.198;9.902;2023-01-29T08:28:34;23.40;;;20.87;;
17524;SDS011;40431;52.198;9.902;2023-01-29T08:31:02;25.60;;;22.77;;
17524;SDS011;40431;52.198;9.902;2023-01-29T08:33:29;26.53;;;22.30;;
17524;SDS011;40431;52.198;9.902;2023-01-29T08:35:55;26.43;;;21.30;;
17524;SDS011;40431;52.198;9.902;2023-01-29T08:38:22;28.63;;;21.97;;
17524;SDS011;40431;52.198;9.902;2023-01-29T08:40:48;28.27;;;21.97;;
17524;SDS011;40431;52.198;9.902;2023-01-29T08:43:16;25.67;;;22.47;;
17524;SDS011;40431;52.198;9.902;2023-01-29T08:45:42;29.40;;;23.13;;
17524;SDS011;40431;52.198;9.902;2023-01-29T08:48:09;25.90;;;22.63;;
17524;SDS011;40431;52.198;9.902;2023-01-29T08:50:36;28.07;;;22.87;;
17524;SDS011;40431;52.198;9.902;2023-01-29T08:53:04;31.90;;;22.63;;
17524;SDS011;40431;52.198;9.902;2023-01-29T08:55:33;24.43;;;21.70;;
17524;SDS011;40431;52.198;9.902;2023-01-29T08:58:02;31.23;;;24.87;;
17524;SDS011;40431;52.198;9.902;2023-01-29T09:00:30;25.30;;;21.73;;
17524;SDS011;40431;52.198;9.902;2023-01-29T09:02:56;25.13;;;22.30;;
17524;SDS011;40431;52.198;9.902;2023-01-29T09:05:25;26.20;;;21.50;;
17524;SDS011;40431;52.198;9.902;2023-01-29T09:07:51;28.03;;;22.53;;
17524;SDS011;40431;52.198;9.902;2023-01-29T09:10:17;28.03;;;22.47;;
17524;SDS011;40431;52.198;9.902;2023-01-29T09:12:44;27.73;;;23.07;;
17524;SDS011;40431;52.198;9.902;2023-01-29T09:15:10;27.60;;;23.30;;
17524;SDS011;40431;52.198;9.902;2023-01-29T09:17:38;31.07;;;24.87;;
17524;SDS011;40431;52.198;9.902;2023-01-29T09:20:05;34.27;;;25.67;;
17524;SDS011;40431;52.198;9.902;2023-01-29T09:22:32;37.03;;;25.77;;
17524;SDS011;40431;52.198;9.902;2023-01-29T09:25:00;35.57;;;26.87;;
17524;SDS011;40431;52.198;9.902;2023-01-29T09:27:26;32.07;;;24.77;;
17524;SDS011;40431;52.198;9.902;2023-01-29T09:29:53;36.70;;;26.23;;
17524;SDS011;40431;52.198;9.902;2023-01-29T09:32:19;30.47;;;24.83;;
17524;SDS011;40431;52.198;9.902;2023-01-29T09:34:47;36.27;;;26.50;;
17524;SDS011;40431;52.198;9.902;2023-01-29T09:37:13;33.87;;;24.93;;
17524;SDS011;40431;52.198;9.902;2023-01-29T09:39:42;32.30;;;23.77;;
17524;SDS011;40431;52.198;9.902;2023-01-29T09:42:09;35.30;;;25.93;;
17524;SDS011;40431;52.198;9.902;2023-01-29T09:44:45;39.20;;;27.60;;
17524;SDS011;40431;52.198;9.902;2023-01-29T09:47:20;32.33;;;25.03;;
17524;SDS011;40431;52.198;9.902;2023-01-29T09:49:51;29.87;;;24.00;;
17524;SDS011;40431;52.198;9.902;2023-01-29T09:52:23;29.87;;;24.57;;
17524;SDS011;40431;52.198;9.902;2023-01-29T09:54:53;31.07;;;25.33;;
17524;SDS011;40431;52.198;9.902;2023-01-29T09:57:29;33.57;;;23.57;;
17524;SDS011;40431;52.198;9.902;2023-01-29T10:00:00;31.77;;;24.63;;
17524;SDS011;40431;52.198;9.902;2023-01-29T10:05:30;31.10;;;23.53;;
17524;SDS011;40431;52.198;9.902;2023-01-29T10:08:20;30.83;;;22.70;;
17524;SDS011;40431;52.198;9.902;2023-01-29T10:10:55;25.93;;;22.70;;
17524;SDS011;40431;52.198;9.902;2023-01-29T10:13:28;27.27;;;22.63;;
17524;SDS011;40431;52.198;9.902;2023-01-29T10:16:09;28.00;;;23.60;;
17524;SDS011;40431;52.198;9.902;2023-01-29T10:18:55;23.17;;;20.50;;
17524;SDS011;40431;52.198;9.902;2023-01-29T10:21:36;30.20;;;23.20;;
17524;SDS011;40431;52.198;9.902;2023-01-29T10:24:21;33.67;;;22.00;;
17524;SDS011;40431;52.198;9.902;2023-01-29T10:26:56;29.50;;;23.57;;
17524;SDS011;40431;52.198;9.902;2023-01-29T10:29:23;30.50;;;22.80;;
17524;SDS011;40431;52.198;9.902;2023-01-29T10:31:54;31.13;;;22.33;;
17524;SDS011;40431;52.198;9.902;2023-01-29T10:34:24;27.63;;;23.40;;
17524;SDS011;40431;52.198;9.902;2023-01-29T10:36:56;26.27;;;22.13;;
17524;SDS011;40431;52.198;9.902;2023-01-29T10:39:23;33.37;;;23.33;;
17524;SDS011;40431;52.198;9.902;2023-01-29T10:42:01;27.20;;;22.30;;
17524;SDS011;40431;52.198;9.902;2023-01-29T10:44:42;27.10;;;21.80;;
17524;SDS011;40431;52.198;9.902;2023-01-29T10:47:37;29.03;;;23.53;;
17524;SDS011;40431;52.198;9.902;2023-01-29T10:50:20;27.00;;;21.73;;
17524;SDS011;40431;52.198;9.902;2023-01-29T10:53:08;29.83;;;21.73;;
17524;SDS011;40431;52.198;9.902;2023-01-29T10:55:45;28.47;;;22.67;;
17524;SDS011;40431;52.198;9.902;2023-01-29T10:58:25;24.87;;;22.17;;
17524;SDS011;40431;52.198;9.902;2023-01-29T11:00:59;24.70;;;22.10;;
17524;SDS011;40431;52.198;9.902;2023-01-29T11:03:26;25.73;;;21.60;;
17524;SDS011;40431;52.198;9.902;2023-01-29T11:05:55;27.53;;;23.83;;
17524;SDS011;40431;52.198;9.902;2023-01-29T11:08:30;28.47;;;22.23;;
17524;SDS011;40431;52.198;9.902;2023-01-29T11:11:03;28.33;;;21.30;;
17524;SDS011;40431;52.198;9.902;2023-01-29T11:13:33;24.83;;;21.53;;
17524;SDS011;40431;52.198;9.902;2023-01-29T11:16:07;26.13;;;18.57;;
17524;SDS011;40431;52.198;9.902;2023-01-29T11:18:53;27.70;;;21.53;;
17524;SDS011;40431;52.198;9.902;2023-01-29T11:21:22;24.87;;;19.37;;
17524;SDS011;40431;52.198;9.902;2023-01-29T11:23:51;27.00;;;20.17;;
17524;SDS011;40431;52.198;9.902;2023-01-29T11:26:32;28.47;;;21.03;;
17524;SDS011;40431;52.198;9.902;2023-01-29T11:29:00;25.03;;;21.83;;
17524;SDS011;40431;52.198;9.902;2023-01-29T11:31:28;22.93;;;20.47;;
17524;SDS011;40431;52.198;9.902;2023-01-29T11:34:02;23.80;;;21.27;;
17524;SDS011;40431;52.198;9.902;2023-01-29T11:36:31;23.87;;;21.37;;
17524;SDS011;40431;52.198;9.902;2023-01-29T11:39:09;23.00;;;20.53;;
17524;SDS011;40431;52.198;9.902;2023-01-29T11:41:43;27.13;;;22.03;;
17524;SDS011;40431;52.198;9.902;2023-01-29T11:44:16;26.83;;;22.47;;
17524;SDS011;40431;52.198;9.902;2023-01-29T11:46:44;26.23;;;21.73;;
17524;SDS011;40431;52.198;9.902;2023-01-29T11:49:12;24.63;;;21.37;;
17524;SDS011;40431;52.198;9.902;2023-01-29T11:51:50;26.07;;;22.23;;
17524;SDS011;40431;52.198;9.902;2023-01-29T11:54:21;23.63;;;20.63;;
17524;SDS011;40431;52.198;9.902;2023-01-29T11:56:53;22.27;;;20.17;;
17524;SDS011;40431;52.198;9.902;2023-01-29T11:59:25;22.23;;;19.93;;
17524;SDS011;40431;52.198;9.902;2023-01-29T12:02:05;22.53;;;19.97;;
17524;SDS011;40431;52.198;9.902;2023-01-29T12:04:43;26.40;;;20.73;;
17524;SDS011;40431;52.198;9.902;2023-01-29T12:07:11;23.50;;;20.63;;
17524;SDS011;40431;52.198;9.902;2023-01-29T12:09:44;22.87;;;20.33;;
17524;SDS011;40431;52.198;9.902;2023-01-29T12:12:25;23.83;;;21.47;;
17524;SDS011;40431;52.198;9.902;2023-01-29T12:15:04;22.43;;;19.50;;
17524;SDS011;40431;52.198;9.902;2023-01-29T12:17:40;20.33;;;18.10;;
17524;SDS011;40431;52.198;9.902;2023-01-29T12:20:12;21.93;;;19.60;;
17524;SDS011;40431;52.198;9.902;2023-01-29T12:22:44;20.73;;;18.43;;
17524;SDS011;40431;52.198;9.902;2023-01-29T12:25:17;20.40;;;18.30;;
17524;SDS011;40431;52.198;9.902;2023-01-29T12:27:48;22.20;;;18.53;;
17524;SDS011;40431;52.198;9.902;2023-01-29T12:30:24;19.70;;;17.70;;
17524;SDS011;40431;52.198;9.902;2023-01-29T12:32:55;19.60;;;17.57;;
17524;SDS011;40431;52.198;9.902;2023-01-29T12:35:29;19.50;;;17.50;;
17524;SDS011;40431;52.198;9.902;2023-01-29T12:37:59;20.73;;;18.67;;
17524;SDS011;40431;52.198;9.902;2023-01-29T12:40:31;21.43;;;19.10;;
17524;SDS011;40431;52.198;9.902;2023-01-29T12:43:04;22.80;;;18.07;;
17524;SDS011;40431;52.198;9.902;2023-01-29T12:45:37;20.87;;;17.83;;
17524;SDS011;40431;52.198;9.902;2023-01-29T12:48:07;23.23;;;19.23;;
17524;SDS011;40431;52.198;9.902;2023-01-29T12:50:37;21.50;;;18.93;;
17524;SDS011;40431;52.198;9.902;2023-01-29T12:53:05;20.07;;;17.93;;
17524;SDS011;40431;52.198;9.902;2023-01-29T12:55:43;21.23;;;19.07;;
17524;SDS011;40431;52.198;9.902;2023-01-29T12:58:13;21.07;;;17.07;;
17524;SDS011;40431;52.198;9.902;2023-01-29T13:00:42;19.57;;;17.57;;
17524;SDS011;40431;52.198;9.902;2023-01-29T13:03:13;23.13;;;18.40;;
17524;SDS011;40431;52.198;9.902;2023-01-29T13:05:45;19.80;;;17.73;;
17524;SDS011;40431;52.198;9.902;2023-01-29T13:08:16;21.47;;;19.27;;
17524;SDS011;40431;52.198;9.902;2023-01-29T13:10:48;20.90;;;18.83;;
17524;SDS011;40431;52.198;9.902;2023-01-29T13:13:19;19.57;;;17.57;;
17524;SDS011;40431;52.198;9.902;2023-01-29T13:15:51;20.37;;;18.27;;
17524;SDS011;40431;52.198;9.902;2023-01-29T13:18:32;20.80;;;18.73;;
17524;SDS011;40431;52.198;9.902;2023-01-29T13:21:06;19.63;;;17.83;;
17524;SDS011;40431;52.198;9.902;2023-01-29T13:23:39;19.90;;;17.80;;
17524;SDS011;40431;52.198;9.902;2023-01-29T13:26:10;19.90;;;17.90;;
17524;SDS011;40431;52.198;9.902;2023-01-29T13:28:37;18.00;;;16.40;;
17524;SDS011;40431;52.198;9.902;2023-01-29T13:31:17;18.07;;;16.43;;
17524;SDS011;40431;52.198;9.902;2023-01-29T13:33:51;20.27;;;18.13;;
17524;SDS011;40431;52.198;9.902;2023-01-29T13:36:23;18.83;;;16.97;;
17524;SDS011;40431;52.198;9.902;2023-01-29T13:38:54;18.10;;;16.43;;
17524;SDS011;40431;52.198;9.902;2023-01-29T13:41:36;19.27;;;17.37;;
17524;SDS011;40431;52.198;9.902;2023-01-29T13:44:07;17.70;;;16.07;;
17524;SDS011;40431;52.198;9.902;2023-01-29T13:46:46;18.70;;;17.10;;
17524;SDS011;40431;52.198;9.902;2023-01-29T13:49:23;18.83;;;17.03;;
17524;SDS011;40431;52.198;9.902;2023-01-29T13:51:53;21.93;;;19.57;;
17524;SDS011;40431;52.198;9.902;2023-01-29T13:54:21;32.10;;;23.93;;
17524;SDS011;40431;52.198;9.902;2023-01-29T13:57:00;80.23;;;38.10;;
17524;SDS011;40431;52.198;9.902;2023-01-29T13:59:48;18.93;;;17.23;;
17524;SDS011;40431;52.198;9.902;2023-01-29T14:02:21;18.53;;;16.83;;
17524;SDS011;40431;52.198;9.902;2023-01-29T14:04:49;18.23;;;16.53;;
17524;SDS011;40431;52.198;9.902;2023-01-29T14:10:14;18.10;;;16.17;;
17524;SDS011;40431;52.198;9.902;2023-01-29T14:12:44;17.50;;;15.70;;
17524;SDS011;40431;52.198;9.902;2023-01-29T14:15:16;16.67;;;15.23;;
17524;SDS011;40431;52.198;9.902;2023-01-29T14:17:58;16.80;;;15.27;;
17524;SDS011;40431;52.198;9.902;2023-01-29T14:20:30;17.23;;;15.50;;
17524;SDS011;40431;52.198;9.902;2023-01-29T14:23:00;17.57;;;15.73;;
17524;SDS011;40431;52.198;9.902;2023-01-29T14:25:28;16.03;;;14.30;;
17524;SDS011;40431;52.198;9.902;2023-01-29T14:27:58;16.60;;;15.00;;
17524;SDS011;40431;52.198;9.902;2023-01-29T14:30:26;16.57;;;15.13;;
17524;SDS011;40431;52.198;9.902;2023-01-29T14:32:56;18.53;;;16.13;;
17524;SDS011;40431;52.198;9.902;2023-01-29T14:35:23;17.13;;;15.23;;
17524;SDS011;40431;52.198;9.902;2023-01-29T14:37:52;16.97;;;15.37;;
17524;SDS011;40431;52.198;9.902;2023-01-29T14:40:22;17.80;;;14.63;;
17524;SDS011;40431;52.198;9.902;2023-01-29T14:42:55;18.23;;;16.43;;
17524;SDS011;40431;52.198;9.902;2023-01-29T14:45:27;16.83;;;15.13;;
17524;SDS011;40431;52.198;9.902;2023-01-29T14:47:55;16.47;;;14.73;;
17524;SDS011;40431;52.198;9.902;2023-01-29T14:50:37;17.70;;;15.93;;
17524;SDS011;40431;52.198;9.902;2023-01-29T14:53:09;15.47;;;13.90;;
17524;SDS011;40431;52.198;9.902;2023-01-29T14:55:39;21.67;;;19.47;;